Time;durP1;ratioP1;P1;durP2;ratioP2;P2;SDS_P1;SDS_P2;PMS_P1;PMS_P2;Temp;Humidity;BMP_temperature;BMP_pressure;BME280_temperature;BME280_humidity;BME280_pressure;Samples;Min_cycle;Max_cycle;Signal;HPM_P1;HPM_P2
2022/11/09 00:01:08;;;;;;;8.45;0.93;;;;;;;-142.75;100.00;76153.00;5099561;28;20122;-69
2022/11/09 00:03:33;;;;;;;;;;;;;;;-142.75;100.00;76145.13;5101070;28;20575;-68
2022/11/09 00:05:59;;;;;;;6.55;1.42;;;;;;;-142.75;100.00;76141.19;5098974;28;19912;-68
2022/11/09 00:08:24;;;;;;;;;;;;;;;-142.75;100.00;76149.06;5099369;28;20027;-68
2022/11/09 00:13:22;;;;;;;3.55;1.00;;;;;;;-142.75;100.00;76164.81;5077467;28;20040;-67
2022/11/09 00:15:47;;;;;;;9.18;1.45;;;;;;;-142.75;100.00;76160.88;5078831;28;20035;-64
2022/11/09 00:18:13;;;;;;;;;;;;;;;-142.75;100.00;76162.84;5078401;28;20111;-65
2022/11/09 00:20:38;;;;;;;8.73;1.30;;;;;;;-142.75;100.00;76166.78;5060876;28;19969;-63
2022/11/09 00:23:04;;;;;;;;;;;;;;;-142.75;100.00;76168.75;5060495;28;20024;-63
2022/11/09 00:25:29;;;;;;;7.30;1.35;;;;;;;-142.75;100.00;76174.66;5077307;28;20300;-63
2022/11/09 00:27:55;;;;;;;;;;;;;;;-142.75;100.00;76164.81;5078305;28;20024;-64
2022/11/09 00:30:20;;;;;;;7.72;1.60;;;;;;;-142.75;100.00;76180.56;5078524;28;19911;-64
2022/11/09 00:32:45;;;;;;;;;;;;;;;-142.75;100.00;76174.66;5061445;28;20123;-65
2022/11/09 00:35:10;;;;;;;8.77;1.40;;;;;;;-142.75;100.00;76178.59;5078794;28;19916;-65
2022/11/09 00:37:36;;;;;;;;;;;;;;;-142.75;100.00;76172.69;5078069;28;20312;-64
2022/11/09 00:40:01;;;;;;;8.68;1.15;;;;;;;-142.75;100.00;76194.34;5077976;28;20726;-64
2022/11/09 00:42:26;;;;;;;;;;;;;;;-142.75;100.00;76192.38;5079216;28;20016;-65
2022/11/09 00:44:52;;;;;;;8.50;0.88;;;;;;;-142.75;100.00;76196.31;5075801;28;19969;-66
2022/11/09 00:47:17;;;;;;;4.00;1.00;;;;;;;-142.75;100.00;76196.31;5077340;28;20119;-66
2022/11/09 00:49:42;;;;;;;;;;;;;;;-142.75;100.00;76192.38;5076097;28;20111;-63
2022/11/09 00:52:07;;;;;;;8.45;1.25;;;;;;;-142.75;100.00;76210.06;5059423;28;20030;-64
2022/11/09 00:54:33;;;;;;;;;;;;;;;-142.75;100.00;76204.16;5078359;28;20032;-63
2022/11/09 00:56:58;;;;;;;8.75;1.23;;;;;;;-142.75;100.00;76206.13;5058702;28;19918;-63
2022/11/09 00:59:23;;;;;;;;;;;;;;;-142.75;100.00;76208.09;5078443;28;20463;-64
2022/11/09 01:01:48;;;;;;;5.25;1.13;;;;;;;-142.75;100.00;76215.97;5078005;28;19989;-64
2022/11/09 01:04:14;;;;;;;9.38;1.40;;;;;;;-142.75;100.00;76215.97;5078887;28;20063;-65
2022/11/09 01:06:39;;;;;;;;;;;;;;;-142.75;100.00;76206.13;5077702;28;20478;-62
2022/11/09 01:09:04;;;;;;;6.10;1.20;;;;;;;-142.75;100.00;76212.03;5059152;28;19912;-63
2022/11/09 01:11:29;;;;;;;9.13;1.13;;;;;;;-142.75;100.00;76227.78;5077644;28;20024;-64
2022/11/09 01:13:57;;;;;;;;;;;;;;;-142.75;100.00;76223.84;5059962;28;20070;-66
2022/11/09 01:16:23;;;;;;;7.75;1.40;;;;;;;-142.75;100.00;76227.78;5076661;28;20416;-64
2022/11/09 01:18:52;;;;;;;7.90;1.52;;;;;;;-142.75;100.00;76225.81;5077051;28;20035;-65
2022/11/09 01:21:17;;;;;;;11.75;1.75;;;;;;;-142.75;100.00;76227.78;5077489;28;20355;-65
2022/11/09 01:23:42;;;;;;;7.60;1.33;;;;;;;-142.75;100.00;76221.88;5059281;28;20445;-62
2022/11/09 01:26:09;;;;;;;;;;;;;;;-142.75;100.00;76217.94;5059786;28;20031;-65
2022/11/09 01:28:35;;;;;;;15.18;2.03;;;;;;;-142.75;100.00;76221.88;5075071;28;19916;-63
2022/11/09 01:31:03;;;;;;;11.05;1.17;;;;;;;-142.75;100.00;76227.78;5076885;28;20136;-65
2022/11/09 01:33:29;;;;;;;9.70;1.33;;;;;;;-142.75;100.00;76225.81;5060459;28;20024;-65
2022/11/09 01:35:54;;;;;;;11.82;1.60;;;;;;;-142.75;100.00;76231.72;5077184;28;20036;-62
2022/11/09 01:38:19;;;;;;;8.70;1.40;;;;;;;-142.75;100.00;76225.81;5077110;28;20054;-65
2022/11/09 01:40:44;;;;;;;7.82;1.45;;;;;;;-142.75;100.00;76227.78;5059247;28;20024;-65
2022/11/09 01:43:14;;;;;;;;;;;;;;;-142.75;100.00;76223.84;5077492;28;20024;-63
2022/11/09 01:45:41;;;;;;;8.13;1.27;;;;;;;-142.75;100.00;76214.00;5077294;28;20011;-63
2022/11/09 01:48:14;;;;;;;9.45;1.63;;;;;;;-142.75;100.00;76214.00;5058011;28;20024;-66
2022/11/09 01:50:59;;;;;;;6.80;1.33;;;;;;;-142.75;100.00;76208.09;5075963;28;20489;-64
2022/11/09 01:53:30;;;;;;;9.88;1.48;;;;;;;-142.75;100.00;76212.03;5077371;28;20048;-66
2022/11/09 01:56:00;;;;;;;11.15;1.58;;;;;;;-142.75;100.00;76215.97;5077001;28;20587;-63
2022/11/09 01:58:32;;;;;;;4.90;1.33;;;;;;;-142.75;100.00;76217.94;5076296;28;20073;-65
2022/11/09 02:00:59;;;;;;;7.80;1.30;;;;;;;-142.75;100.00;76233.69;5058609;28;20026;-63
2022/11/09 02:03:30;;;;;;;10.80;1.45;;;;;;;-142.75;100.00;76235.66;5077705;28;20020;-64
2022/11/09 02:05:58;;;;;;;10.07;1.45;;;;;;;-142.75;100.00;76233.69;5059392;28;20624;-65
2022/11/09 02:08:25;;;;;;;9.40;1.27;;;;;;;-142.75;100.00;76231.72;5076007;28;20111;-63
2022/11/09 02:11:08;;;;;;;6.13;0.90;;;;;;;-142.75;100.00;76231.72;5077036;28;20020;-65
2022/11/09 02:13:37;;;;;;;5.82;1.10;;;;;;;-142.75;100.00;76225.81;5058950;28;20497;-66
2022/11/09 02:16:03;;;;;;;5.38;1.15;;;;;;;-142.75;100.00;76235.66;5076291;28;20085;-66
2022/11/09 02:18:31;;;;;;;4.10;1.13;;;;;;;-142.75;100.00;76235.66;5076161;28;20024;-64
2022/11/09 02:20:57;;;;;;;4.57;1.17;;;;;;;-142.75;100.00;76247.47;5076435;28;20107;-66
2022/11/09 02:23:24;;;;;;;6.68;1.30;;;;;;;-142.75;100.00;76247.47;5080553;28;20508;-65
2022/11/09 02:26:12;;;;;;;8.63;1.35;;;;;;;-142.75;100.00;76245.50;5080650;28;20549;-66
2022/11/09 02:28:38;;;;;;;7.90;1.40;;;;;;;-142.75;100.00;76255.34;5079255;28;20051;-66
2022/11/09 02:31:07;;;;;;;3.72;0.90;;;;;;;-142.75;100.00;76255.34;5080706;28;20047;-66
2022/11/09 02:33:54;;;;;;;12.13;1.50;;;;;;;-142.75;100.00;76265.19;5063525;28;20077;-66
2022/11/09 02:36:22;;;;;;;12.38;1.55;;;;;;;-142.75;100.00;76259.28;5080707;28;20024;-65
2022/11/09 02:38:48;;;;;;;8.00;1.10;;;;;;;-142.75;100.00;76269.13;5079652;28;20028;-66
2022/11/09 02:41:15;;;;;;;8.65;0.90;;;;;;;-142.75;100.00;76273.06;5080739;28;20022;-66
2022/11/09 02:43:40;;;;;;;9.77;1.67;;;;;;;-142.75;100.00;76278.97;5080745;28;20089;-65
2022/11/09 02:46:06;;;;;;;9.98;1.50;;;;;;;-142.75;100.00;76275.03;5080086;28;20024;-66
2022/11/09 02:48:31;;;;;;;9.65;1.13;;;;;;;-142.75;100.00;76286.84;5080010;28;20024;-64
2022/11/09 02:50:56;;;;;;;10.57;1.60;;;;;;;-142.75;100.00;76284.88;5080055;28;20024;-64
2022/11/09 02:53:21;;;;;;;;;;;;;;;-142.75;100.00;76286.84;5080644;28;20024;-66
2022/11/09 02:55:47;;;;;;;8.68;1.33;;;;;;;-142.75;100.00;76290.78;5080496;28;19983;-66
2022/11/09 02:58:12;;;;;;;;;;;;;;;-142.75;100.00;76290.78;5061382;28;20024;-65
2022/11/09 03:00:37;;;;;;;6.65;1.45;;;;;;;-142.75;100.00;76302.59;5080344;28;19912;-66
2022/11/09 03:03:03;;;;;;;7.75;1.50;;;;;;;-142.75;100.00;76298.66;5062636;28;20051;-66
2022/11/09 03:05:29;;;;;;;7.63;1.25;;;;;;;-142.75;100.00;76296.69;5080890;28;20107;-66
2022/11/09 03:07:55;;;;;;;6.15;0.98;;;;;;;-142.75;100.00;76306.53;5079523;28;20042;-66
2022/11/09 03:10:20;;;;;;;7.95;1.45;;;;;;;-142.75;100.00;76306.53;5080056;28;20081;-66
2022/11/09 03:12:46;;;;;;;5.22;0.90;;;;;;;-142.75;100.00;76316.38;5079807;28;20066;-66
2022/11/09 03:15:11;;;;;;;8.57;1.35;;;;;;;-142.75;100.00;76328.19;5079790;28;20376;-65
2022/11/09 03:17:36;;;;;;;;;;;;;;;-142.75;100.00;76330.16;5061794;28;20035;-64
2022/11/09 03:20:02;;;;;;;7.07;1.05;;;;;;;-142.75;100.00;76330.16;5061638;28;19916;-65
2022/11/09 03:22:28;;;;;;;;;;;;;;;-142.75;100.00;76330.16;5080242;28;20103;-66
2022/11/09 03:24:53;;;;;;;8.50;1.25;;;;;;;-142.75;100.00;76340.00;5079882;28;19912;-66
2022/11/09 03:27:18;;;;;;;9.82;1.67;;;;;;;-142.75;100.00;76351.81;5079086;28;20082;-65
2022/11/09 03:29:43;;;;;;;7.22;1.20;;;;;;;-142.75;100.00;76340.00;5079386;28;20085;-67
2022/11/09 03:32:09;;;;;;;;;;;;;;;-142.75;100.00;76347.84;5061593;28;20023;-65
2022/11/09 03:34:34;;;;;;;4.53;1.17;;;;;;;-142.75;100.00;76355.72;5079561;28;20676;-66
2022/11/09 03:37:00;;;;;;;;;;;;;;;-142.75;100.00;76357.69;5078988;28;20032;-66
2022/11/09 03:39:25;;;;;;;9.13;1.10;;;;;;;-142.75;100.00;76363.59;5061536;28;20019;-65
2022/11/09 03:41:50;;;;;;;;;;;;;;;-142.75;100.00;76369.50;5061891;28;20092;-66
2022/11/09 03:44:15;;;;;;;7.82;1.25;;;;;;;-142.75;100.00;76373.44;5079344;28;20336;-66
2022/11/09 03:46:41;;;;;;;;;;;;;;;-142.75;100.00;76377.38;5076740;28;20028;-65
2022/11/09 03:49:06;;;;;;;6.07;0.90;;;;;;;-142.75;100.00;76385.25;5060988;28;19966;-66
2022/11/09 03:51:31;;;;;;;;;;;;;;;-142.75;100.00;76385.25;5078253;28;20032;-64
2022/11/09 03:53:57;;;;;;;6.15;1.13;;;;;;;-142.75;100.00;76387.22;5078664;28;20335;-65
2022/11/09 03:56:22;;;;;;;8.95;1.90;;;;;;;-142.75;100.00;76397.06;5079351;28;20540;-66
2022/11/09 03:58:47;;;;;;;7.50;0.80;;;;;;;-142.75;100.00;76399.03;5078388;28;20032;-65
2022/11/09 04:01:13;;;;;;;6.00;1.00;;;;;;;-142.75;100.00;76393.13;5078863;28;20028;-65
2022/11/09 04:03:38;;;;;;;8.15;1.30;;;;;;;-142.75;100.00;76393.13;5062240;28;20048;-65
2022/11/09 04:06:04;;;;;;;9.80;1.15;;;;;;;-142.75;100.00;76387.22;5078801;28;20020;-65
2022/11/09 04:08:29;;;;;;;;;;;;;;;-142.75;100.00;76379.34;5078887;28;20024;-65
2022/11/09 04:10:54;;;;;;;6.50;1.25;;;;;;;-142.75;100.00;76385.25;5078796;28;19993;-65
2022/11/09 04:13:20;;;;;;;6.30;0.90;;;;;;;-142.75;100.00;76387.22;5078152;28;20059;-62
2022/11/09 04:15:45;;;;;;;;;;;;;;;-142.75;100.00;76393.13;5079445;28;20436;-65
2022/11/09 04:18:13;;;;;;;9.75;1.20;;;;;;;-142.75;100.00;76395.09;5078018;28;19912;-65
2022/11/09 04:20:39;;;;;;;7.40;1.30;;;;;;;-142.75;100.00;76389.19;5060870;28;20073;-65
2022/11/09 04:23:06;;;;;;;5.93;1.08;;;;;;;-142.75;100.00;76399.03;5077905;28;20099;-64
2022/11/09 04:25:34;;;;;;;6.20;1.27;;;;;;;-142.75;100.00;76408.88;5078961;28;20051;-66
2022/11/09 04:28:01;;;;;;;8.35;0.93;;;;;;;-142.75;100.00;76404.94;5077093;28;20047;-65
2022/11/09 04:30:28;;;;;;;6.63;0.80;;;;;;;-142.75;100.00;76401.00;5078609;28;20379;-64
2022/11/09 04:32:54;;;;;;;6.25;0.85;;;;;;;-142.75;100.00;76397.06;5060611;28;20024;-66
2022/11/09 04:35:20;;;;;;;13.13;1.08;;;;;;;-142.75;100.00;76414.78;5078860;28;20650;-66
2022/11/09 04:37:54;;;;;;;7.25;0.70;;;;;;;-142.75;100.00;76414.78;5077204;28;20158;-65
2022/11/09 04:40:20;;;;;;;5.63;1.20;;;;;;;-142.75;100.00;76414.78;5059947;28;20135;-65
2022/11/09 04:42:45;;;;;;;11.88;1.30;;;;;;;-142.75;100.00;76414.78;5078102;28;20023;-65
2022/11/09 04:45:10;;;;;;;9.02;1.02;;;;;;;-142.75;100.00;76434.47;5078032;28;20095;-65
2022/11/09 04:47:36;;;;;;;5.57;1.23;;;;;;;-142.75;100.00;76428.56;5077591;28;20020;-66
2022/11/09 04:50:01;;;;;;;9.25;0.93;;;;;;;-142.75;100.00;76432.50;5077569;28;20885;-66
2022/11/09 04:52:26;;;;;;;9.48;1.13;;;;;;;-142.75;100.00;76430.53;5077386;28;20042;-65
2022/11/09 04:54:51;;;;;;;8.93;1.70;;;;;;;-142.75;100.00;76432.50;5059649;28;20020;-63
2022/11/09 04:57:17;;;;;;;11.32;1.00;;;;;;;-142.75;100.00;76436.44;5076755;28;20023;-65
2022/11/09 04:59:42;;;;;;;7.93;1.15;;;;;;;-142.75;100.00;76436.44;5077336;28;20031;-64
2022/11/09 05:02:07;;;;;;;9.95;1.30;;;;;;;-142.75;100.00;76434.47;5077005;28;20024;-65
2022/11/09 05:04:33;;;;;;;4.55;0.98;;;;;;;-142.75;100.00;76436.44;5077188;28;20016;-63
2022/11/09 05:06:58;;;;;;;12.50;1.33;;;;;;;-142.75;100.00;76440.38;5075782;28;20822;-63
2022/11/09 05:09:23;;;;;;;9.43;1.55;;;;;;;-142.75;100.00;76446.28;5077561;28;20344;-65
2022/11/09 05:11:50;;;;;;;11.18;1.20;;;;;;;-142.75;100.00;76448.25;5058498;28;20035;-65
2022/11/09 05:14:15;;;;;;;6.32;1.55;;;;;;;-142.75;100.00;76442.34;5058975;28;20028;-64
2022/11/09 05:16:41;;;;;;;10.70;1.25;;;;;;;-142.75;100.00;76446.28;5076301;28;20524;-65
2022/11/09 05:19:06;;;;;;;3.22;0.90;;;;;;;-142.75;100.00;76450.22;5058695;28;20085;-64
2022/11/09 05:21:31;;;;;;;9.13;1.25;;;;;;;-142.75;100.00;76450.22;5077540;28;20028;-65
2022/11/09 05:23:59;;;;;;;10.40;1.30;;;;;;;-142.75;100.00;76464.00;5077275;28;20020;-64
2022/11/09 05:26:30;;;;;;;11.93;1.70;;;;;;;-142.75;100.00;76454.16;5061453;28;20047;-64
2022/11/09 05:28:58;;;;;;;5.40;1.15;;;;;;;-142.75;100.00;76460.06;5079106;28;20024;-65
2022/11/09 05:31:24;;;;;;;9.30;1.02;;;;;;;-142.75;100.00;76460.06;5079797;28;20031;-65
2022/11/09 05:33:51;;;;;;;9.10;1.75;;;;;;;-142.75;100.00;76456.13;5079547;28;20031;-66
2022/11/09 05:36:17;;;;;;;11.40;1.35;;;;;;;-142.75;100.00;76471.88;5079327;28;20023;-65
2022/11/09 05:38:42;;;;;;;;;;;;;;;-142.75;100.00;76473.84;5078931;28;20024;-65
2022/11/09 05:41:07;;;;;;;9.40;1.10;;;;;;;-142.75;100.00;76479.75;5060807;28;19969;-66
2022/11/09 05:43:33;;;;;;;14.20;1.42;;;;;;;-142.75;100.00;76479.75;5061460;28;20484;-65
2022/11/09 05:45:58;;;;;;;9.35;1.20;;;;;;;-142.75;100.00;76479.75;5078859;28;20552;-64
2022/11/09 05:48:23;;;;;;;3.88;1.20;;;;;;;-142.75;100.00;76481.72;5060789;28;20073;-65
2022/11/09 05:50:49;;;;;;;10.35;0.98;;;;;;;-142.75;100.00;76497.47;5078971;28;20526;-65
2022/11/09 05:53:14;;;;;;;;;;;;;;;-142.75;100.00;76501.41;5079245;28;20036;-66
2022/11/09 05:55:39;;;;;;;12.05;1.13;;;;;;;-142.75;100.00;76503.38;5079476;28;19919;-66
2022/11/09 05:58:05;;;;;;;6.45;0.93;;;;;;;-142.75;100.00;76501.41;5077383;28;20038;-67
2022/11/09 06:00:31;;;;;;;;;;;;;;;-142.75;100.00;76511.25;5079742;28;20509;-66
2022/11/09 06:03:10;;;;;;;9.43;1.33;;;;;;;-142.75;100.00;76499.44;5078811;28;19961;-66
2022/11/09 06:05:37;;;;;;;4.63;1.25;;;;;;;-142.75;100.00;76501.41;5079224;28;20024;-65
2022/11/09 06:08:04;;;;;;;11.27;1.70;;;;;;;-142.75;100.00;76503.38;5077838;28;20027;-65
2022/11/09 06:10:29;;;;;;;7.25;1.25;;;;;;;-142.75;100.00;76503.38;5079256;28;20446;-67
2022/11/09 06:12:55;;;;;;;8.52;1.45;;;;;;;-142.75;100.00;76505.34;5106118;22;20130;-67
2022/11/09 06:15:20;;;;;;;12.57;1.52;;;;;;;-142.75;100.00;76503.38;5081024;28;20020;-67
2022/11/09 06:17:53;;;;;;;12.30;1.45;;;;;;;-142.75;100.00;76507.31;5098179;28;20528;-66
2022/11/09 06:20:20;;;;;;;10.73;1.73;;;;;;;-142.75;100.00;76497.47;5099026;28;20111;-67
2022/11/09 06:22:52;;;;;;;10.57;1.38;;;;;;;-142.75;100.00;76503.38;5099053;28;20020;-65
2022/11/09 06:25:18;;;;;;;14.48;1.55;;;;;;;-142.75;100.00;76499.44;5080665;28;20135;-67
2022/11/09 06:27:43;;;;;;;8.85;1.27;;;;;;;-142.75;100.00;76509.28;5098326;28;20034;-65
2022/11/09 06:30:09;;;;;;;9.88;1.00;;;;;;;-142.75;100.00;76511.25;5098842;28;20019;-67
2022/11/09 06:32:34;;;;;;;9.80;1.20;;;;;;;-142.75;100.00;76497.47;5099001;28;20027;-67
2022/11/09 06:34:59;;;;;;;7.28;1.20;;;;;;;-142.75;100.00;76503.38;5098854;28;20024;-67
2022/11/09 06:37:25;;;;;;;;;;;;;;;-142.75;100.00;76491.56;5098911;28;20042;-68
2022/11/09 06:39:50;;;;;;;7.10;1.30;;;;;;;-142.75;100.00;76503.38;5098733;28;19988;-67
2022/11/09 06:42:15;;;;;;;6.32;1.55;;;;;;;-142.75;100.00;76503.38;5098814;28;20035;-68
2022/11/09 06:44:41;;;;;;;5.57;1.13;;;;;;;-142.75;100.00;76497.47;5098960;28;20110;-68
2022/11/09 06:47:06;;;;;;;7.00;1.92;;;;;;;-142.75;100.00;76505.34;5097840;28;20027;-69
2022/11/09 06:49:31;;;;;;;10.65;1.33;;;;;;;-142.75;100.00;76499.44;5099115;28;20051;-66
2022/11/09 06:51:57;;;;;;;6.10;1.38;;;;;;;-142.75;100.00;76499.44;5098877;28;20022;-68
2022/11/09 06:54:22;;;;;;;5.82;0.80;;;;;;;-142.75;100.00;76497.47;5098465;28;20035;-67
2022/11/09 06:56:47;;;;;;;14.27;1.52;;;;;;;-142.75;100.00;76511.25;5098237;28;20043;-67
2022/11/09 06:59:13;;;;;;;13.02;1.50;;;;;;;-142.75;100.00;76515.19;5098693;28;20019;-68
2022/11/09 07:01:38;;;;;;;10.70;1.40;;;;;;;-142.75;100.00;76519.13;5098822;28;20024;-67
2022/11/09 07:04:03;;;;;;;7.20;1.42;;;;;;;-142.75;100.00;76519.13;5098458;28;20460;-68
2022/11/09 07:06:29;;;;;;;12.63;1.58;;;;;;;-142.75;100.00;76519.13;5098641;28;20030;-67
2022/11/09 07:08:55;;;;;;;7.20;1.23;;;;;;;-142.75;100.00;76521.09;5100784;28;20145;-65
2022/11/09 07:11:20;;;;;;;8.65;1.65;;;;;;;-142.75;100.00;76521.09;5102494;28;20019;-67
2022/11/09 07:13:47;;;;;;;4.53;1.17;;;;;;;-142.75;100.00;76525.03;5102208;28;20604;-68
2022/11/09 07:16:16;;;;;;;9.13;1.80;;;;;;;-142.75;100.00;76527.00;5101958;28;20038;-67
2022/11/09 07:18:45;;;;;;;9.43;1.42;;;;;;;-142.75;100.00;76519.13;5101663;28;20516;-68
2022/11/09 07:21:11;;;;;;;9.45;1.60;;;;;;;-142.75;100.00;76511.25;5102106;28;20026;-68
2022/11/09 07:23:36;;;;;;;;;;;;;;;-142.75;100.00;76513.22;5102572;28;20019;-69
2022/11/09 07:26:01;;;;;;;9.57;1.13;;;;;;;-142.75;100.00;76497.47;5101929;28;19912;-67
2022/11/09 07:28:27;;;;;;;;;;;;;;;-142.75;100.00;76501.41;5101911;28;20126;-66
2022/11/09 07:30:52;;;;;;;8.40;1.40;;;;;;;-142.75;100.00;76489.59;5101757;28;20581;-67
2022/11/09 07:33:18;;;;;;;8.25;1.35;;;;;;;-142.75;100.00;76487.63;5101849;28;20019;-67
2022/11/09 07:35:44;;;;;;;;;;;;;;;-142.75;100.00;76475.81;5079589;28;20847;-67
2022/11/09 07:38:10;;;;;;;5.45;1.70;;;;;;;-142.75;100.00;76485.66;5078885;28;19947;-67
2022/11/09 07:40:35;;;;;;;;;;;;;;;-142.75;100.00;76487.63;5102477;28;20027;-68
2022/11/09 07:43:03;;;;;;;8.05;1.45;;;;;;;-142.75;100.00;76465.97;5101222;28;19968;-67
2022/11/09 07:45:30;;;;;;;9.35;2.03;;;;;;;-142.75;100.00;76483.69;5101754;28;20030;-67
2022/11/09 07:47:57;;;;;;;12.48;1.60;;;;;;;-142.75;100.00;76450.22;5100874;28;20072;-67
2022/11/09 07:50:22;;;;;;;7.13;1.90;;;;;;;-142.75;100.00;76442.34;5101825;28;20094;-68
2022/11/09 07:52:47;;;;;;;8.43;1.15;;;;;;;-142.75;100.00;76444.31;5101371;28;20042;-67
2022/11/09 07:55:13;;;;;;;12.32;1.23;;;;;;;-142.75;100.00;76452.19;5101491;28;20051;-68
2022/11/09 07:57:38;;;;;;;;;;;;;;;-142.75;100.00;76483.69;5101286;28;20509;-68
2022/11/09 08:00:04;;;;;;;19.85;2.00;;;;;;;-142.75;100.00;76489.59;5100684;28;19966;-68
2022/11/09 08:02:29;;;;;;;;;;;;;;;-142.75;100.00;76477.78;5083863;28;20023;-68
2022/11/09 08:04:54;;;;;;;8.15;2.58;;;;;;;-142.75;100.00;76467.94;5101087;28;19933;-67
2022/11/09 08:07:22;;;;;;;;;;;;;;;-142.75;100.00;76442.34;5100946;28;20536;-67
2022/11/09 08:09:47;;;;;;;8.68;1.60;;;;;;;-142.75;100.00;76450.22;5100924;28;19912;-68
2022/11/09 08:12:13;;;;;;;7.95;1.23;;;;;;;-142.75;100.00;76408.88;5100961;28;20031;-67
2022/11/09 08:14:38;;;;;;;13.45;2.88;;;;;;;-142.75;100.00;76402.97;5101210;28;20039;-69
2022/11/09 08:17:03;;;;;;;9.23;2.00;;;;;;;-142.75;100.00;76371.47;5099945;28;20028;-68
2022/11/09 08:19:28;;;;;;;6.95;1.33;;;;;;;-142.75;100.00;76375.41;5100547;28;20019;-67
2022/11/09 08:21:56;;;;;;;10.73;1.98;;;;;;;-142.75;100.00;76365.56;5100575;28;20028;-68
2022/11/09 08:24:22;;;;;;;10.45;2.45;;;;;;;-142.75;100.00;76357.69;5100938;28;20015;-67
2022/11/09 08:26:47;;;;;;;12.65;1.60;;;;;;;-142.75;100.00;76397.06;5081730;28;20444;-68
2022/11/09 08:29:14;;;;;;;;;;;;;;;-142.75;100.00;76395.09;5101144;28;20091;-67
2022/11/09 08:31:39;;;;;;;10.55;1.67;;;;;;;-142.75;100.00;76424.63;5100716;28;20618;-67
2022/11/09 08:34:05;;;;;;;11.10;1.88;;;;;;;-142.75;100.00;76434.47;5100426;28;20023;-67
2022/11/09 08:36:32;;;;;;;10.70;2.03;;;;;;;-142.75;100.00;76448.25;5100340;28;20044;-69
2022/11/09 08:38:58;;;;;;;10.40;1.67;;;;;;;-142.75;100.00;76467.94;5099769;28;20027;-67
2022/11/09 08:41:24;;;;;;;5.55;1.20;;;;;;;-142.75;100.00;76483.69;5100458;28;20870;-67
2022/11/09 08:43:49;;;;;;;10.10;1.73;;;;;;;-142.75;100.00;76483.69;5082275;28;20115;-68
2022/11/09 08:46:14;;;;;;;4.85;1.10;;;;;;;-142.75;100.00;76475.81;5100221;28;20055;-68
2022/11/09 08:48:40;;;;;;;;;;;;;;;-142.75;100.00;76475.81;5100306;28;20027;-67
2022/11/09 08:51:05;;;;;;;10.10;1.25;;;;;;;-142.75;100.00;76487.63;5100185;28;19998;-68
2022/11/09 08:53:30;;;;;;;14.50;1.77;;;;;;;-142.75;100.00;76491.56;5100213;28;20077;-69
2022/11/09 08:55:56;;;;;;;11.20;2.00;;;;;;;-142.75;100.00;76489.59;5100108;28;20019;-68
2022/11/09 08:58:21;;;;;;;9.75;2.15;;;;;;;-142.75;100.00;76471.88;5099246;28;20485;-67
2022/11/09 09:00:47;;;;;;;8.77;1.50;;;;;;;-142.75;100.00;76483.69;5100217;28;20023;-69
2022/11/09 09:03:12;;;;;;;7.68;1.65;;;;;;;-142.75;100.00;76481.72;5099897;28;20751;-69
2022/11/09 09:05:37;;;;;;;;;;;;;;;-142.75;100.00;76479.75;5100610;28;20047;-69
2022/11/09 09:08:04;;;;;;;12.15;1.95;;;;;;;-142.75;100.00;76467.94;5080730;28;20034;-69
2022/11/09 09:10:31;;;;;;;9.68;1.83;;;;;;;-142.75;100.00;76471.88;5100312;28;20051;-69
2022/11/09 09:12:56;;;;;;;13.55;2.40;;;;;;;-142.75;100.00;76471.88;5099188;28;20028;-68
2022/11/09 09:15:22;;;;;;;11.68;1.98;;;;;;;-142.75;100.00;76469.91;5099630;28;20358;-68
2022/11/09 09:17:47;;;;;;;9.90;1.27;;;;;;;-142.75;100.00;76458.09;5081090;28;20034;-68
2022/11/09 09:20:13;;;;;;;11.07;1.77;;;;;;;-142.75;100.00;76477.78;5099939;28;20466;-68
2022/11/09 09:22:39;;;;;;;;;;;;;;;-142.75;100.00;76467.94;5100210;28;20089;-68
2022/11/09 09:25:05;;;;;;;10.13;2.00;;;;;;;-142.75;100.00;76454.16;5099450;28;19965;-68
2022/11/09 09:27:30;;;;;;;;;;;;;;;-142.75;100.00;76424.63;5099836;28;20131;-67
2022/11/09 09:29:56;;;;;;;9.10;1.85;;;;;;;-142.75;100.00;76426.59;5099482;28;20511;-68
2022/11/09 09:32:21;;;;;;;10.95;1.98;;;;;;;-142.75;100.00;76416.75;5098692;28;20037;-68
2022/11/09 09:34:46;;;;;;;8.40;1.65;;;;;;;-142.75;100.00;76422.66;5099443;28;20027;-68
2022/11/09 09:37:12;;;;;;;7.95;1.27;;;;;;;-142.75;100.00;76391.16;5098708;28;20042;-67
2022/11/09 09:39:37;;;;;;;12.18;1.77;;;;;;;-142.75;100.00;76389.19;5081822;28;20116;-68
2022/11/09 09:42:28;;;;;;;8.45;1.48;;;;;;;-142.75;100.00;76402.97;5099027;28;20027;-67
2022/11/09 09:45:01;;;;;;;8.82;1.50;;;;;;;-142.75;100.00;76420.69;5099318;28;20023;-68
2022/11/09 09:47:50;;;;;;;11.38;1.50;;;;;;;-142.75;100.00;76432.50;5099023;28;20024;-68
2022/11/09 09:50:25;;;;;;;14.00;1.88;;;;;;;-142.75;100.00;76416.75;5099197;28;20058;-69
2022/11/09 09:52:55;;;;;;;6.78;1.48;;;;;;;-142.75;100.00;76377.38;5099202;28;20073;-67
2022/11/09 09:55:20;;;;;;;6.97;1.98;;;;;;;-142.75;100.00;76288.81;5099320;28;20019;-68
2022/11/09 09:57:52;;;;;;;8.50;1.65;;;;;;;-142.75;100.00;76310.47;5098578;28;20481;-67
2022/11/09 10:00:23;;;;;;;7.35;1.20;;;;;;;-142.75;100.00;76332.13;5099229;28;20396;-68
2022/11/09 10:02:50;;;;;;;16.05;2.10;;;;;;;-142.75;100.00;76371.47;5099118;28;20015;-67
2022/11/09 10:05:17;;;;;;;6.10;1.50;;;;;;;-142.75;100.00;76389.19;5099424;28;20602;-67
2022/11/09 10:07:54;;;;;;;7.43;1.02;;;;;;;-142.75;100.00;76408.88;5098431;28;20106;-67
2022/11/09 10:10:32;;;;;;;9.60;1.65;;;;;;;-142.75;100.00;76428.56;5099054;28;20027;-67
2022/11/09 10:13:22;;;;;;;7.18;1.20;;;;;;;-142.75;100.00;76416.75;5080835;28;20092;-66
2022/11/09 10:15:58;;;;;;;6.45;1.42;;;;;;;-142.75;100.00;76428.56;5099206;28;20704;-66
2022/11/09 10:18:44;;;;;;;7.22;1.05;;;;;;;-142.75;100.00;76424.63;5098522;28;20039;-65
2022/11/09 10:21:41;;;;;;;6.30;1.38;;;;;;;-142.75;100.00;76444.31;5080931;28;20114;-67
2022/11/09 10:24:24;;;;;;;4.95;1.17;;;;;;;-142.75;100.00;76436.44;5098656;28;20467;-66
2022/11/09 10:26:53;;;;;;;9.30;1.15;;;;;;;-142.75;100.00;76434.47;5098468;28;20024;-66
2022/11/09 10:29:23;;;;;;;12.50;1.83;;;;;;;-142.75;100.00;76469.91;5098995;28;20062;-68
2022/11/09 10:31:51;;;;;;;8.15;1.83;;;;;;;-142.75;100.00;76483.69;5080982;28;20393;-67
2022/11/09 10:34:20;;;;;;;11.95;1.90;;;;;;;-142.75;100.00;76489.59;5080754;28;20027;-68
2022/11/09 10:37:00;;;;;;;6.40;1.38;;;;;;;-142.75;100.00;76503.38;5098131;28;20028;-66
2022/11/09 10:39:34;;;;;;;11.23;1.20;;;;;;;-142.75;100.00;76501.41;5099239;28;20031;-66
2022/11/09 10:41:59;;;;;;;9.77;1.33;;;;;;;-142.75;100.00;76487.63;5098689;28;20023;-66
2022/11/09 10:44:25;;;;;;;8.38;1.80;;;;;;;-142.75;100.00;76483.69;5102939;28;20048;-64
2022/11/09 10:47:05;;;;;;;7.63;1.88;;;;;;;-142.75;100.00;76460.06;5102437;28;20049;-66
2022/11/09 10:49:32;;;;;;;11.05;1.75;;;;;;;-142.75;100.00;76440.38;5103285;28;20485;-66
2022/11/09 10:51:58;;;;;;;12.65;2.22;;;;;;;-142.75;100.00;76408.88;5102830;28;20024;-66
2022/11/09 10:54:31;;;;;;;5.45;0.90;;;;;;;-142.75;100.00;76412.81;5084664;28;20077;-67
2022/11/09 10:56:59;;;;;;;14.43;1.60;;;;;;;-142.75;100.00;76399.03;5101867;28;20023;-66
2022/11/09 10:59:47;;;;;;;8.15;1.55;;;;;;;-142.75;100.00;76416.75;5084441;28;20024;-67
2022/11/09 11:02:25;;;;;;;10.18;1.58;;;;;;;-142.75;100.00;76412.81;5102053;28;20643;-66
2022/11/09 11:05:16;;;;;;;5.07;0.80;;;;;;;-142.75;100.00;76432.50;5101954;28;20023;-67
2022/11/09 11:07:42;;;;;;;5.13;1.08;;;;;;;-142.75;100.00;76464.00;5087318;28;20035;-66
2022/11/09 11:10:14;;;;;;;8.88;0.85;;;;;;;-142.75;100.00;76497.47;5102113;28;20032;-67
2022/11/09 11:12:40;;;;;;;5.68;1.33;;;;;;;-142.75;100.00;76513.22;5102121;28;20031;-66
2022/11/09 11:15:37;;;;;;;7.35;1.35;;;;;;;-142.75;100.00;76554.53;5101896;28;20016;-66
2022/11/09 11:18:11;;;;;;;3.38;0.73;;;;;;;-142.75;100.00;76609.66;5101144;28;20051;-65
2022/11/09 11:20:37;;;;;;;3.67;1.02;;;;;;;-142.75;100.00;76609.66;5102282;28;20050;-67